British Tenacity — MDTE9 — position and weather

sailwx.info

Track history (hours):
 
Tides and Currents Weather Stations Pressure Air Temp Water Temp Dewpoint Dewpoint Depression Visibility Wind Speed Wind Dir Waves Ship Positions

British Tenacity

Last reported at 2016-May-05 15:31 UTC. Time now 2016-May-06 01:44 UTC.
Position S 13°05' W 038°22'.

Type: Ship (hazmat cat C). MMSI: 235825000.

Date/timePositionNaut miles runAvg speedWind from/ knotsBaromVisibWave heightAir tempDewpointWater temp
2016-May-05 15:31S 13°05' W 038°22'1111.4
2016-May-05 14:33S 13°04' W 038°33'1111.2
2016-May-05 13:32S 12°52' W 038°33'6 5.3
2016-May-05 12:22S 12°47' W 038°30'0 0.0
2016-May-05 11:31S 12°47' W 038°30'0 0.0
2016-May-05 10:31S 12°47' W 038°30'0 0.0
2016-May-05 09:13S 12°47' W 038°30'0 0.0
2016-May-05 08:31S 12°47' W 038°30'0 0.0
2016-May-05 07:31S 12°47' W 038°30'0 0.0
2016-May-05 06:25S 12°47' W 038°30'0 0.0
2016-May-05 05:22S 12°47' W 038°30'0 0.0
2016-May-05 04:22S 12°47' W 038°30'0 0.0
2016-May-05 03:31S 12°47' W 038°30'0 0.0
2016-May-05 02:31S 12°47' W 038°30'0 0.0
2016-May-05 01:31S 12°47' W 038°30'0 0.0
2016-May-05 00:31S 12°47' W 038°30'0 0.0
2016-May-04 23:31S 12°47' W 038°30'0 0.0
2016-May-04 22:16S 12°47' W 038°30'0 0.0
2016-May-04 21:31S 12°47' W 038°30'0 0.0
2016-May-04 20:31S 12°47' W 038°30'0 0.0
2016-May-04 18:28S 12°47' W 038°30'0 0.0
2016-May-04 17:25S 12°47' W 038°30'0 0.0
2016-May-04 16:31S 12°47' W 038°30'0 0.0
2016-May-04 15:31S 12°47' W 038°30'0 0.0
2016-May-04 14:31S 12°47' W 038°30'0 0.0
2016-May-04 13:28S 12°47' W 038°30'0 0.0
2016-May-04 12:28S 12°47' W 038°30'0 0.0
2016-May-04 11:31S 12°47' W 038°30'0 0.0
2016-May-04 10:28S 12°47' W 038°30'0 0.0
2016-May-04 09:30S 12°47' W 038°30'0 0.0
2016-May-04 08:33S 12°47' W 038°30'0 0.0
2016-May-04 07:33S 12°47' W 038°30'0 0.0
2016-May-04 06:33S 12°47' W 038°30'0 0.0
2016-May-04 04:30S 12°47' W 038°30'0 0.0
2016-May-04 03:33S 12°47' W 038°30'0 0.0
2016-May-04 02:33S 12°47' W 038°30'0 0.0
2016-May-04 01:24S 12°47' W 038°30'0 0.0
2016-May-04 00:33S 12°47' W 038°30'0 0.0
2016-May-03 23:33S 12°47' W 038°30'0 0.0
2016-May-03 22:33S 12°47' W 038°30'0 0.0
2016-May-03 21:30S 12°47' W 038°30'0 0.0
2016-May-03 20:33S 12°47' W 038°30'0 0.0
2016-May-03 19:18S 12°47' W 038°30'0 0.0
2016-May-03 18:33S 12°47' W 038°30'0 0.0
2016-May-03 17:30S 12°47' W 038°30'0 0.0
2016-May-03 16:27S 12°47' W 038°30'0 0.0
2016-May-03 15:30S 12°47' W 038°30'0 0.0
2016-May-03 14:15S 12°47' W 038°30'0 0.0
2016-May-03 13:18S 12°47' W 038°30'0 0.0
2016-May-03 12:33S 12°47' W 038°30'0 0.0
2016-May-03 10:32S 12°47' W 038°30'0 0.0
2016-May-03 09:32S 12°47' W 038°30'0 0.0
2016-May-03 08:32S 12°47' W 038°30'0 0.0
2016-May-03 07:32S 12°47' W 038°30'0 0.0
2016-May-03 06:29S 12°47' W 038°30'0 0.0
2016-May-03 05:32S 12°47' W 038°30'0 0.0
2016-May-03 04:23S 12°47' W 038°30'0 0.0
2016-May-03 03:14S 12°47' W 038°30'0 0.0
2016-May-03 02:31S 12°47' W 038°30'0 0.0
2016-May-03 01:28S 12°47' W 038°30'0 0.0
2016-May-03 00:22S 12°47' W 038°30'0 0.0
2016-May-02 23:31S 12°47' W 038°30'0 0.0
2016-May-02 22:28S 12°47' W 038°30'0 0.1
2016-May-02 21:33S 12°47' W 038°30'4 4.1
2016-May-02 20:33S 12°51' W 038°31'5 5.2
2016-May-02 19:33S 12°56' W 038°33'8 7.8
2016-May-02 18:32S 13°03' W 038°36'0 0.0
2016-May-01 05:24S 13°03' W 038°37'0 0.0
2016-May-01 04:30S 13°03' W 038°37'0 0.0
2016-Apr-29 17:04S 13°03' W 038°37'4 7.6
2016-Apr-29 16:33S 13°07' W 038°36'62113.2
2016-Apr-27 17:33S 23°19' W 040°29'1212.1
2016-Apr-27 16:33S 23°28' W 040°39'1212.1
2016-Apr-27 15:33S 23°36' W 040°48'1212.3
2016-Apr-27 14:33S 23°40' W 041°01'1212.3
2016-Apr-27 13:33S 23°42' W 041°14'1312.9
2016-Apr-27 12:33S 23°44' W 041°28'1413.8
2016-Apr-27 11:33S 23°46' W 041°43'2014.4
2016-Apr-27 10:09S 23°49' W 042°05'3613.7
2016-Apr-27 07:33S 23°54' W 042°44'16914.1
2016-Apr-26 19:33S 24°20' W 045°46'1514.6
2016-Apr-26 18:33S 24°22' W 046°02'1313.3
2016-Apr-26 17:33S 24°19' W 046°16'1413.7
2016-Apr-26 16:33S 24°06' W 046°22'9 8.4
2016-Apr-26 15:29S 23°58' W 046°18'  
Track history (hours):
 
Tides and Currents Weather Stations Pressure Air Temp Water Temp Dewpoint Dewpoint Depression Visibility Wind Speed Wind Dir Waves Ship Positions

British Tenacity

Last reported at 2016-May-05 15:31 UTC. Time now 2016-May-06 01:44 UTC.
Position S 13°05' W 038°22'.

Type: Ship (hazmat cat C). MMSI: 235825000.

Date/timePositionNaut miles runAvg speedWind from/ knotsBaromVisibWave heightAir tempDewpointWater temp
2016-May-05 15:31S 13°05' W 038°22'1111.4
2016-May-05 14:33S 13°04' W 038°33'1111.2
2016-May-05 13:32S 12°52' W 038°33'6 5.3
2016-May-05 12:22S 12°47' W 038°30'0 0.0
2016-May-05 11:31S 12°47' W 038°30'0 0.0
2016-May-05 10:31S 12°47' W 038°30'0 0.0
2016-May-05 09:13S 12°47' W 038°30'0 0.0
2016-May-05 08:31S 12°47' W 038°30'0 0.0
2016-May-05 07:31S 12°47' W 038°30'0 0.0
2016-May-05 06:25S 12°47' W 038°30'0 0.0
2016-May-05 05:22S 12°47' W 038°30'0 0.0
2016-May-05 04:22S 12°47' W 038°30'0 0.0
2016-May-05 03:31S 12°47' W 038°30'0 0.0
2016-May-05 02:31S 12°47' W 038°30'0 0.0
2016-May-05 01:31S 12°47' W 038°30'0 0.0
2016-May-05 00:31S 12°47' W 038°30'0 0.0
2016-May-04 23:31S 12°47' W 038°30'0 0.0
2016-May-04 22:16S 12°47' W 038°30'0 0.0
2016-May-04 21:31S 12°47' W 038°30'0 0.0
2016-May-04 20:31S 12°47' W 038°30'0 0.0
2016-May-04 18:28S 12°47' W 038°30'0 0.0
2016-May-04 17:25S 12°47' W 038°30'0 0.0
2016-May-04 16:31S 12°47' W 038°30'0 0.0
2016-May-04 15:31S 12°47' W 038°30'0 0.0
2016-May-04 14:31S 12°47' W 038°30'0 0.0
2016-May-04 13:28S 12°47' W 038°30'0 0.0
2016-May-04 12:28S 12°47' W 038°30'0 0.0
2016-May-04 11:31S 12°47' W 038°30'0 0.0
2016-May-04 10:28S 12°47' W 038°30'0 0.0
2016-May-04 09:30S 12°47' W 038°30'0 0.0
2016-May-04 08:33S 12°47' W 038°30'0 0.0
2016-May-04 07:33S 12°47' W 038°30'0 0.0
2016-May-04 06:33S 12°47' W 038°30'0 0.0
2016-May-04 04:30S 12°47' W 038°30'0 0.0
2016-May-04 03:33S 12°47' W 038°30'0 0.0
2016-May-04 02:33S 12°47' W 038°30'0 0.0
2016-May-04 01:24S 12°47' W 038°30'0 0.0
2016-May-04 00:33S 12°47' W 038°30'0 0.0
2016-May-03 23:33S 12°47' W 038°30'0 0.0
2016-May-03 22:33S 12°47' W 038°30'0 0.0
2016-May-03 21:30S 12°47' W 038°30'0 0.0
2016-May-03 20:33S 12°47' W 038°30'0 0.0
2016-May-03 19:18S 12°47' W 038°30'0 0.0
2016-May-03 18:33S 12°47' W 038°30'0 0.0
2016-May-03 17:30S 12°47' W 038°30'0 0.0
2016-May-03 16:27S 12°47' W 038°30'0 0.0
2016-May-03 15:30S 12°47' W 038°30'0 0.0
2016-May-03 14:15S 12°47' W 038°30'0 0.0
2016-May-03 13:18S 12°47' W 038°30'0 0.0
2016-May-03 12:33S 12°47' W 038°30'0 0.0
2016-May-03 10:32S 12°47' W 038°30'0 0.0
2016-May-03 09:32S 12°47' W 038°30'0 0.0
2016-May-03 08:32S 12°47' W 038°30'0 0.0
2016-May-03 07:32S 12°47' W 038°30'0 0.0
2016-May-03 06:29S 12°47' W 038°30'0 0.0
2016-May-03 05:32S 12°47' W 038°30'0 0.0
2016-May-03 04:23S 12°47' W 038°30'0 0.0
2016-May-03 03:14S 12°47' W 038°30'0 0.0
2016-May-03 02:31S 12°47' W 038°30'0 0.0
2016-May-03 01:28S 12°47' W 038°30'0 0.0
2016-May-03 00:22S 12°47' W 038°30'0 0.0
2016-May-02 23:31S 12°47' W 038°30'0 0.0
2016-May-02 22:28S 12°47' W 038°30'0 0.1
2016-May-02 21:33S 12°47' W 038°30'4 4.1
2016-May-02 20:33S 12°51' W 038°31'5 5.2
2016-May-02 19:33S 12°56' W 038°33'8 7.8
2016-May-02 18:32S 13°03' W 038°36'0 0.0
2016-May-01 05:24S 13°03' W 038°37'0 0.0
2016-May-01 04:30S 13°03' W 038°37'0 0.0
2016-Apr-29 17:04S 13°03' W 038°37'4 7.6
2016-Apr-29 16:33S 13°07' W 038°36'62113.2
2016-Apr-27 17:33S 23°19' W 040°29'1212.1
2016-Apr-27 16:33S 23°28' W 040°39'1212.1
2016-Apr-27 15:33S 23°36' W 040°48'1212.3
2016-Apr-27 14:33S 23°40' W 041°01'1212.3
2016-Apr-27 13:33S 23°42' W 041°14'1312.9
2016-Apr-27 12:33S 23°44' W 041°28'1413.8
2016-Apr-27 11:33S 23°46' W 041°43'2014.4
2016-Apr-27 10:09S 23°49' W 042°05'3613.7
2016-Apr-27 07:33S 23°54' W 042°44'16914.1
2016-Apr-26 19:33S 24°20' W 045°46'1514.6
2016-Apr-26 18:33S 24°22' W 046°02'1313.3
2016-Apr-26 17:33S 24°19' W 046°16'1413.7
2016-Apr-26 16:33S 24°06' W 046°22'9 8.4
2016-Apr-26 15:29S 23°58' W 046°18'  

Dump ship's entire track history